Time;durP1;ratioP1;P1;durP2;ratioP2;P2;SDS_P1;SDS_P2;PMS_P1;PMS_P2;Temp;Humidity;BMP_temperature;BMP_pressure;BME280_temperature;BME280_humidity;BME280_pressure;Samples;Min_cycle;Max_cycle;Signal;HPM_P1;HPM_P2
2022/06/11 00:08:26;;;;;;;7.20;3.28;;;16.50;99.90;;;;;;5232835;23;20045;-83
2022/06/11 00:18:44;;;;;;;10.23;3.88;;;16.40;99.90;;;;;;3192386;22;20049;-82
2022/06/11 00:21:13;;;;;;;8.57;3.25;;;16.30;99.90;;;;;;5053039;28;20506;-82
2022/06/11 00:23:44;;;;;;;8.30;3.95;;;15.50;99.90;;;;;;5051261;28;20102;-83
2022/06/11 00:26:24;;;;;;;7.13;3.15;;;17.10;99.90;;;;;;5045961;28;20021;-83
2022/06/11 00:28:57;;;;;;;7.03;3.53;;;14.40;99.90;;;;;;5051186;28;20014;-81
2022/06/11 00:31:28;;;;;;;8.38;3.78;;;16.30;99.90;;;;;;5045613;28;20025;-83
2022/06/11 00:33:54;;;;;;;7.15;3.85;;;16.20;99.90;;;;;;5037408;28;20014;-83
2022/06/11 00:54:30;;;;;;;6.03;3.10;;;16.00;99.90;;;;;;3229537;23;20089;-83
2022/06/11 00:57:20;;;;;;;9.27;3.80;;;17.90;99.90;;;;;;5021018;28;20022;-84
2022/06/11 01:00:15;;;;;;;6.38;3.20;;;16.00;99.90;;;;;;5013761;28;20018;-82
2022/06/11 01:02:56;;;;;;;9.00;3.28;;;15.90;99.90;;;;;;5036770;28;20022;-84
2022/06/11 01:05:34;;;;;;;6.70;3.10;;;15.90;99.90;;;;;;5040932;28;20041;-82
2022/06/11 01:08:19;;;;;;;6.75;3.22;;;16.00;99.90;;;;;;5037478;28;20030;-83
2022/06/11 01:11:30;;;;;;;8.93;4.45;;;15.10;99.90;;;;;;5052059;28;20056;-83
2022/06/11 01:14:45;;;;;;;7.63;3.50;;;15.00;99.90;;;;;;5035587;28;20053;-83
2022/06/11 01:17:29;;;;;;;7.93;3.58;;;15.60;99.90;;;;;;4973813;28;20027;-83
2022/06/11 01:20:21;;;;;;;9.27;3.40;;;15.70;99.90;;;;;;5039313;28;20049;-82
2022/06/11 01:23:22;;;;;;;6.32;3.33;;;15.70;99.90;;;;;;5035039;28;20007;-83
2022/06/11 01:26:21;;;;;;;5.97;3.20;;;15.80;99.90;;;;;;5038365;28;20129;-83
2022/06/11 01:29:33;;;;;;;9.38;3.25;;;15.80;99.90;;;;;;5047923;28;20049;-82
2022/06/11 01:32:34;;;;;;;6.60;3.13;;;15.80;99.90;;;;;;5036364;28;20030;-82
2022/06/11 01:35:21;;;;;;;6.18;3.30;;;15.90;99.90;;;;;;5038720;28;20109;-83
2022/06/11 01:38:45;;;;;;;6.25;3.40;;;15.90;99.90;;;;;;5037106;28;20029;-83
2022/06/11 01:41:35;;;;;;;8.90;2.97;;;15.70;99.90;;;;;;4997058;28;20014;-82
2022/06/11 01:44:26;;;;;;;6.43;2.90;;;15.90;99.90;;;;;;5031937;28;20021;-82
2022/06/11 01:46:55;;;;;;;7.90;3.60;;;15.60;99.90;;;;;;5030789;28;20030;-82
2022/06/11 01:49:21;;;;;;;8.70;3.63;;;16.80;99.90;;;;;;5024283;28;20078;-83
2022/06/11 01:52:07;;;;;;;6.28;3.20;;;15.70;99.90;;;;;;5040461;28;20041;-84
2022/06/11 01:55:05;;;;;;;5.75;2.80;;;15.80;99.90;;;;;;5032161;28;20045;-83
2022/06/11 01:57:46;;;;;;;7.70;3.28;;;16.70;99.90;;;;;;5034940;28;20018;-83
2022/06/11 02:00:56;;;;;;;9.77;3.58;;;15.70;99.90;;;;;;5040420;28;20086;-82
2022/06/11 02:03:37;;;;;;;9.65;4.13;;;15.80;99.90;;;;;;5025013;28;20014;-83
2022/06/11 02:06:56;;;;;;;5.43;3.30;;;13.80;99.90;;;;;;5050177;28;20020;-83
2022/06/11 02:09:57;;;;;;;5.53;3.17;;;15.70;99.90;;;;;;5055743;28;20038;-81
2022/06/11 02:12:49;;;;;;;6.07;3.20;;;15.40;99.90;;;;;;5002370;28;20030;-81
2022/06/11 02:15:21;;;;;;;8.55;4.22;;;15.60;99.90;;;;;;5026467;28;20375;-82
2022/06/11 02:17:54;;;;;;;7.03;3.47;;;17.00;99.90;;;;;;5038920;28;20013;-82
2022/06/11 02:20:30;;;;;;;7.53;3.85;;;15.50;99.90;;;;;;5039785;28;20014;-83
2022/06/11 02:23:33;;;;;;;5.32;3.53;;;15.70;99.90;;;;;;5040345;28;20025;-81
2022/06/11 02:28:39;;;;;;;6.88;3.17;;;15.60;99.90;;;;;;5450789;22;20050;-83
2022/06/11 02:31:11;;;;;;;6.40;3.35;;;15.30;99.90;;;;;;5041683;28;20041;-82
2022/06/11 02:34:03;;;;;;;7.50;3.60;;;15.60;99.90;;;;;;5058323;28;20120;-82
2022/06/11 02:41:42;;;;;;;9.55;3.78;;;15.60;99.90;;;;;;1403478;26;20053;-82
2022/06/11 02:44:09;;;;;;;9.45;3.80;;;15.50;99.90;;;;;;5020821;28;20031;-82
2022/06/11 02:46:46;;;;;;;6.68;3.67;;;15.50;99.90;;;;;;5038885;28;20069;-83
2022/06/11 02:49:27;;;;;;;7.05;3.70;;;15.60;99.90;;;;;;5023155;28;20006;-83
2022/06/11 02:52:04;;;;;;;11.13;3.95;;;15.60;99.90;;;;;;5036801;28;20010;-82
2022/06/11 02:54:30;;;;;;;5.70;3.08;;;15.80;99.90;;;;;;5021839;28;20022;-83
2022/06/11 02:56:59;;;;;;;6.82;3.55;;;15.50;99.90;;;;;;5036970;28;20026;-82
2022/06/11 02:59:28;;;;;;;9.68;3.40;;;15.60;99.90;;;;;;5035760;28;20057;-81
2022/06/11 03:01:56;;;;;;;5.88;3.25;;;15.50;99.90;;;;;;5036574;28;20006;-83
2022/06/11 03:04:24;;;;;;;7.80;3.47;;;15.40;99.90;;;;;;5027595;28;20022;-81
2022/06/11 03:06:53;;;;;;;7.15;3.65;;;15.50;99.90;;;;;;5053920;28;20029;-83
2022/06/11 03:09:26;;;;;;;6.50;3.42;;;13.80;99.90;;;;;;5019378;28;20014;-81
2022/06/11 03:11:52;;;;;;;10.05;3.55;;;13.70;99.90;;;;;;5039199;28;20040;-83
2022/06/11 03:14:21;;;;;;;5.72;3.28;;;15.30;99.90;;;;;;5041659;28;20022;-84
2022/06/11 03:17:10;;;;;;;5.45;3.03;;;15.40;99.90;;;;;;5038991;28;20073;-82
2022/06/11 03:19:36;;;;;;;6.85;3.45;;;15.70;99.90;;;;;;5036349;28;20033;-82
2022/06/11 03:22:03;;;;;;;7.85;3.63;;;15.50;99.90;;;;;;5072939;22;20076;-82
2022/06/11 03:42:37;;;;;;;12.35;5.15;;;15.20;99.90;;;;;;3033249;22;20053;-83
2022/06/11 03:45:04;;;;;;;7.60;3.72;;;15.20;99.90;;;;;;5025107;28;20093;-83
2022/06/11 03:47:30;;;;;;;8.50;3.92;;;15.30;99.90;;;;;;5022708;28;20057;-83
2022/06/11 03:49:55;;;;;;;7.45;3.70;;;15.20;99.90;;;;;;5036856;28;20023;-81
2022/06/11 03:52:27;;;;;;;11.73;5.30;;;15.20;99.90;;;;;;5021935;28;20048;-82
2022/06/11 03:55:03;;;;;;;6.32;3.83;;;15.30;99.90;;;;;;5038897;28;20017;-82
2022/06/11 03:57:29;;;;;;;6.70;3.58;;;15.20;99.90;;;;;;5021548;28;20085;-83
2022/06/11 03:59:57;;;;;;;7.32;3.83;;;13.90;99.90;;;;;;5026302;28;20010;-81
2022/06/11 04:02:29;;;;;;;7.20;3.53;;;15.20;99.90;;;;;;5039735;28;20017;-85
2022/06/11 04:04:54;;;;;;;8.25;3.47;;;15.20;99.90;;;;;;5041846;28;20042;-82
2022/06/11 04:07:21;;;;;;;7.55;3.40;;;15.20;99.90;;;;;;5039900;28;20020;-82
2022/06/11 04:12:22;;;;;;;7.60;3.60;;;15.20;99.90;;;;;;5000031;28;20106;-89
2022/06/11 04:14:52;;;;;;;6.20;3.33;;;15.20;99.90;;;;;;4985173;28;20030;-88
2022/06/11 04:17:27;;;;;;;6.78;3.92;;;14.50;99.90;;;;;;5011855;28;20032;-89
2022/06/11 04:19:54;;;;;;;9.82;4.30;;;15.10;99.90;;;;;;4995772;28;20045;-89
2022/06/11 04:22:20;;;;;;;6.88;3.63;;;15.10;99.90;;;;;;5017009;28;20042;-89
2022/06/11 04:24:48;;;;;;;9.30;4.40;;;15.20;99.90;;;;;;5016607;28;20021;-89
2022/06/11 05:26:18;;;;;;;6.70;3.78;;;17.10;99.90;;;;;;5038610;28;20045;-90
2022/06/11 05:28:44;;;;;;;9.18;3.70;;;18.10;99.90;;;;;;5048697;28;20029;-89
2022/06/11 05:31:11;;;;;;;10.00;3.55;;;18.60;99.90;;;;;;5033152;28;20080;-88
2022/06/11 05:33:37;;;;;;;8.45;3.50;;;18.90;99.90;;;;;;5033777;28;20022;-88
2022/06/11 05:36:04;;;;;;;7.15;3.78;;;19.40;99.90;;;;;;5032610;28;20030;-88
2022/06/11 05:38:30;;;;;;;7.13;3.47;;;20.30;99.90;;;;;;5032595;28;20022;-90
2022/06/11 05:40:56;;;;;;;6.65;3.10;;;20.50;99.90;;;;;;5031844;28;20117;-88
2022/06/11 05:43:23;;;;;;;5.72;3.40;;;20.80;99.90;;;;;;5034446;28;20038;-88
2022/06/11 05:45:59;;;;;;;7.50;3.50;;;21.20;99.90;;;;;;5048539;28;20025;-89
2022/06/11 05:48:32;;;;;;;5.20;3.08;;;21.00;99.90;;;;;;5039400;28;20034;-88
2022/06/11 05:50:58;;;;;;;5.70;3.30;;;22.60;99.90;;;;;;5050345;28;20025;-89
2022/06/11 05:53:27;;;;;;;8.32;3.60;;;21.80;99.90;;;;;;5033929;28;20030;-89
2022/06/11 05:55:55;;;;;;;7.10;3.05;;;21.90;99.90;;;;;;5035787;28;20653;-87
2022/06/11 05:58:31;;;;;;;8.40;3.17;;;21.50;99.90;;;;;;5032164;28;20040;-88
2022/06/11 06:00:58;;;;;;;7.78;3.15;;;21.30;99.90;;;;;;5029597;28;20150;-89
2022/06/11 06:03:23;;;;;;;7.88;3.20;;;20.90;99.90;;;;;;5031386;28;20029;-87
2022/06/11 06:05:49;;;;;;;5.63;3.17;;;20.90;99.90;;;;;;5040581;28;20026;-86
2022/06/11 06:08:16;;;;;;;8.40;3.05;;;20.70;99.90;;;;;;5044246;28;20087;-88
2022/06/11 06:10:42;;;;;;;7.40;3.42;;;20.60;99.90;;;;;;5044013;28;20053;-88
2022/06/11 06:15:52;;;;;;;7.50;3.22;;;21.70;99.90;;;;;;5047778;28;20044;-87
2022/06/11 06:18:19;;;;;;;6.95;3.20;;;20.80;99.90;;;;;;5047370;28;20038;-89
2022/06/11 06:20:45;;;;;;;6.25;3.03;;;20.90;99.90;;;;;;5042388;28;20022;-88
2022/06/11 06:23:11;;;;;;;7.55;3.22;;;21.00;99.90;;;;;;5039950;28;20101;-88
2022/06/11 06:25:37;;;;;;;9.88;3.28;;;21.20;99.90;;;;;;5039102;28;20160;-89
2022/06/11 06:28:03;;;;;;;7.47;2.90;;;21.40;99.90;;;;;;5043890;28;20036;-88
2022/06/11 06:30:31;;;;;;;6.32;2.75;;;21.50;99.90;;;;;;5039459;28;20097;-88
2022/06/11 06:32:57;;;;;;;6.95;2.50;;;21.50;99.90;;;;;;5040970;28;20029;-88
2022/06/11 06:35:23;;;;;;;5.10;2.13;;;21.20;99.90;;;;;;5044254;28;20017;-88
2022/06/11 06:37:49;;;;;;;6.53;2.45;;;21.70;99.90;;;;;;5037725;28;20089;-87
2022/06/11 06:40:14;;;;;;;7.72;2.70;;;21.70;99.90;;;;;;5040309;28;20021;-87
2022/06/11 06:42:40;;;;;;;7.30;2.58;;;21.50;99.90;;;;;;5041807;28;20033;-88
2022/06/11 06:45:07;;;;;;;5.75;2.50;;;21.60;99.90;;;;;;5037681;28;20034;-87
2022/06/11 06:47:33;;;;;;;5.45;2.33;;;22.60;99.90;;;;;;5054238;28;20005;-88
2022/06/11 06:49:59;;;;;;;9.13;2.47;;;21.50;99.90;;;;;;5053746;28;20022;-88
2022/06/11 06:52:24;;;;;;;10.55;2.47;;;21.60;99.90;;;;;;5038782;28;20113;-87
2022/06/11 06:54:50;;;;;;;7.70;2.33;;;23.00;99.90;;;;;;5037922;28;20075;-87
2022/06/11 06:57:16;;;;;;;5.72;2.03;;;22.10;99.90;;;;;;5030713;28;20034;-88
2022/06/11 06:59:54;;;;;;;5.57;2.30;;;21.50;99.40;;;;;;5036428;28;20152;-88
2022/06/11 07:02:19;;;;;;;5.85;2.20;;;21.90;99.90;;;;;;5049794;28;20021;-86
2022/06/11 07:04:45;;;;;;;6.30;2.33;;;21.20;99.90;;;;;;5039280;28;20250;-88
2022/06/11 07:07:18;;;;;;;7.03;2.60;;;21.20;99.90;;;;;;5040931;28;20025;-88
2022/06/11 07:09:44;;;;;;;7.22;2.30;;;21.30;99.90;;;;;;5034120;28;20483;-87
2022/06/11 07:12:10;;;;;;;6.53;2.58;;;21.20;99.90;;;;;;5035238;28;20022;-88
2022/06/11 07:14:35;;;;;;;5.95;2.58;;;21.20;99.90;;;;;;5038736;28;20024;-90
2022/06/11 07:17:06;;;;;;;8.15;2.70;;;20.40;99.90;;;;;;5038999;28;20052;-89
2022/06/11 07:19:53;;;;;;;5.90;2.40;;;21.20;99.90;;;;;;5024896;28;20042;-89
2022/06/11 07:22:44;;;;;;;9.73;3.10;;;21.30;99.90;;;;;;5032297;28;20093;-90
2022/06/11 07:25:13;;;;;;;5.82;2.60;;;21.40;99.90;;;;;;5036380;28;20052;-89
2022/06/11 07:27:50;;;;;;;6.07;2.40;;;21.60;99.90;;;;;;5040181;28;20033;-87
2022/06/11 07:30:22;;;;;;;4.05;2.08;;;21.80;99.90;;;;;;5036072;28;20041;-90
2022/06/11 07:33:00;;;;;;;6.18;2.50;;;21.90;99.90;;;;;;5020814;28;20029;-89
2022/06/11 07:35:26;;;;;;;6.53;2.40;;;22.10;99.90;;;;;;5042862;28;20105;-89
2022/06/11 07:37:53;;;;;;;6.80;2.20;;;22.20;99.90;;;;;;5038730;28;20030;-88
2022/06/11 07:40:21;;;;;;;6.70;2.50;;;22.30;99.90;;;;;;5039859;28;20041;-87
2022/06/11 07:42:47;;;;;;;5.65;2.58;;;22.50;99.70;;;;;;5020673;28;20022;-87
2022/06/11 07:45:18;;;;;;;5.90;2.17;;;22.50;99.60;;;;;;5027227;28;20042;-89
2022/06/11 07:47:53;;;;;;;6.68;2.08;;;22.60;99.30;;;;;;5040867;28;20021;-88
2022/06/11 07:50:19;;;;;;;6.55;1.90;;;22.80;99.20;;;;;;5052617;28;20053;-88
2022/06/11 07:52:47;;;;;;;7.90;2.10;;;23.00;98.00;;;;;;5038939;28;20018;-87
2022/06/11 07:55:12;;;;;;;4.82;1.77;;;21.60;97.90;;;;;;5034335;28;20574;-87
2022/06/11 07:57:39;;;;;;;6.43;2.08;;;24.70;98.10;;;;;;5042151;28;20056;-87
2022/06/11 08:00:10;;;;;;;6.85;1.52;;;23.30;97.50;;;;;;5045527;28;20009;-87
2022/06/11 08:02:36;;;;;;;7.50;1.80;;;23.20;96.80;;;;;;5032033;28;20084;-87
2022/06/11 08:05:02;;;;;;;8.10;1.83;;;23.40;96.70;;;;;;5049533;28;20033;-88
2022/06/11 08:07:30;;;;;;;4.75;1.80;;;23.50;96.40;;;;;;5041670;28;20080;-88
2022/06/11 08:09:58;;;;;;;4.90;1.80;;;23.60;96.00;;;;;;5047738;28;20064;-88
2022/06/11 08:12:26;;;;;;;3.70;1.42;;;23.70;95.40;;;;;;5049311;28;20033;-89
2022/06/11 08:14:56;;;;;;;7.53;1.67;;;23.80;95.10;;;;;;5045393;28;20045;-87
2022/06/11 08:17:27;;;;;;;7.65;2.28;;;23.60;95.30;;;;;;5038081;28;20030;-87
2022/06/11 08:19:53;;;;;;;8.63;2.10;;;23.80;94.90;;;;;;5031446;28;20030;-86
2022/06/11 08:22:20;;;;;;;6.00;1.77;;;24.40;94.80;;;;;;5038266;28;20055;-90
2022/06/11 08:24:46;;;;;;;6.75;1.83;;;23.90;94.70;;;;;;5039345;28;20033;-88
2022/06/11 08:27:12;;;;;;;5.10;1.40;;;25.30;94.50;;;;;;5025013;28;20060;-88
2022/06/11 08:29:39;;;;;;;6.15;1.80;;;24.00;93.50;;;;;;5037865;28;20026;-87
2022/06/11 08:32:06;;;;;;;6.45;1.60;;;24.10;93.10;;;;;;5034398;28;20025;-89
2022/06/11 08:34:35;;;;;;;7.57;2.42;;;24.00;93.40;;;;;;5046383;28;20032;-88
2022/06/11 08:37:01;;;;;;;;;;;24.20;93.20;;;;;;5046668;28;20068;-87
2022/06/11 08:39:27;;;;;;;4.25;1.40;;;24.30;92.00;;;;;;5043981;28;19988;-89
2022/06/11 08:41:56;;;;;;;5.65;2.00;;;24.40;91.40;;;;;;5036665;28;20033;-86
2022/06/11 08:44:22;;;;;;;3.85;1.30;;;24.50;91.00;;;;;;5031847;28;20025;-87
2022/06/11 08:46:50;;;;;;;7.70;1.73;;;23.10;90.40;;;;;;5036233;28;20020;-86
2022/06/11 08:49:42;;;;;;;5.55;1.50;;;24.60;90.90;;;;;;5048231;28;20117;-88
2022/06/11 08:52:25;;;;;;;5.20;1.50;;;24.50;90.70;;;;;;5050316;28;20041;-89
2022/06/11 08:54:55;;;;;;;6.97;1.65;;;24.90;88.90;;;;;;5036643;28;20022;-89
2022/06/11 08:57:40;;;;;;;;;;;25.00;90.00;;;;;;5055550;28;20018;-88
2022/06/11 09:36:33;;;;;;;3.55;1.30;;;26.10;81.90;;;;;;5035581;28;20042;-83
2022/06/11 09:39:32;;;;;;;3.50;1.25;;;26.30;82.00;;;;;;5044171;28;20025;-84
2022/06/11 09:42:35;;;;;;;5.53;1.77;;;26.30;80.80;;;;;;5034667;28;20093;-86
2022/06/11 09:45:24;;;;;;;4.78;1.45;;;26.20;80.70;;;;;;5037699;28;20021;-84
2022/06/11 09:48:09;;;;;;;5.97;1.45;;;26.30;80.20;;;;;;5053471;28;20745;-83
2022/06/11 09:50:47;;;;;;;4.53;1.20;;;26.20;79.40;;;;;;5038190;28;20026;-83
2022/06/11 09:53:37;;;;;;;5.70;1.98;;;26.20;79.30;;;;;;5039613;28;20029;-85
2022/06/11 09:56:18;;;;;;;3.47;1.30;;;26.20;79.20;;;;;;5041450;28;20028;-86
2022/06/11 09:59:15;;;;;;;3.45;1.40;;;26.30;78.40;;;;;;5029074;28;20018;-84
2022/06/11 10:01:48;;;;;;;4.78;1.65;;;26.30;78.30;;;;;;5038644;28;20040;-87
2022/06/11 10:04:17;;;;;;;5.65;1.60;;;26.40;77.70;;;;;;5035922;28;20124;-85
2022/06/11 10:06:55;;;;;;;3.97;1.33;;;26.60;78.00;;;;;;5033323;28;20025;-85
2022/06/11 10:09:27;;;;;;;8.07;1.70;;;26.70;77.40;;;;;;5038013;28;20026;-86
2022/06/11 10:12:07;;;;;;;4.20;1.88;;;26.90;76.70;;;;;;5034345;28;20112;-86
2022/06/11 10:14:38;;;;;;;;;;;26.80;76.30;;;;;;5032205;28;20036;-84
2022/06/11 10:17:24;;;;;;;5.63;1.27;;;26.80;76.10;;;;;;5022666;28;19972;-86
2022/06/11 10:20:11;;;;;;;3.55;1.50;;;27.00;75.60;;;;;;5036779;28;20478;-85
2022/06/11 10:22:49;;;;;;;2.88;1.27;;;27.20;75.90;;;;;;5035304;28;20052;-86
2022/06/11 10:26:00;;;;;;;4.68;1.40;;;27.00;75.60;;;;;;5035376;28;20041;-85
2022/06/11 10:28:54;;;;;;;7.15;1.50;;;26.90;76.70;;;;;;5002100;28;20486;-85
2022/06/11 10:31:23;;;;;;;6.53;1.58;;;26.60;75.80;;;;;;5035724;28;20038;-84
2022/06/11 10:34:11;;;;;;;;;;;26.10;76.50;;;;;;5032363;28;20079;-84
2022/06/11 10:36:41;;;;;;;7.20;1.42;;;26.20;77.00;;;;;;5021999;28;20071;-86
2022/06/11 10:39:26;;;;;;;4.45;1.20;;;26.60;77.70;;;;;;5031894;28;20041;-86
2022/06/11 10:41:51;;;;;;;3.70;1.48;;;26.90;75.30;;;;;;5034583;28;20103;-84
2022/06/11 10:44:17;;;;;;;4.95;1.42;;;27.00;73.40;;;;;;5033292;28;20029;-83
2022/06/11 10:46:43;;;;;;;6.50;1.50;;;27.00;73.80;;;;;;5038215;28;20647;-84
2022/06/11 10:49:15;;;;;;;3.55;1.10;;;26.90;74.10;;;;;;5038325;28;20022;-83
2022/06/11 10:52:09;;;;;;;4.78;1.52;;;26.70;74.20;;;;;;5038804;28;20030;-83
2022/06/11 10:54:34;;;;;;;3.95;1.45;;;26.50;74.70;;;;;;4994303;28;20025;-83
2022/06/11 10:57:06;;;;;;;3.58;1.20;;;26.70;75.10;;;;;;5036043;28;20037;-86
2022/06/11 10:59:34;;;;;;;3.22;1.27;;;27.00;75.10;;;;;;5035022;28;20017;-84
2022/06/11 11:02:08;;;;;;;5.85;1.40;;;27.10;74.50;;;;;;5033498;28;20018;-82
2022/06/11 11:04:53;;;;;;;3.45;1.25;;;27.40;74.10;;;;;;5040119;28;20116;-85
2022/06/11 11:07:20;;;;;;;4.03;1.20;;;27.60;71.60;;;;;;5035603;28;20067;-85
2022/06/11 11:09:47;;;;;;;6.03;1.55;;;27.60;71.30;;;;;;5031122;28;20040;-84
2022/06/11 11:12:32;;;;;;;5.18;1.65;;;27.80;70.80;;;;;;5032219;28;20032;-85
2022/06/11 11:15:14;;;;;;;3.80;1.70;;;27.90;72.00;;;;;;5033944;28;20564;-84
2022/06/11 11:17:52;;;;;;;4.75;1.20;;;27.90;71.10;;;;;;5035335;28;20539;-84
2022/06/11 11:20:30;;;;;;;4.65;1.20;;;28.00;71.80;;;;;;5033302;28;20116;-82
2022/06/11 11:23:01;;;;;;;6.40;1.45;;;28.00;71.30;;;;;;5030293;28;20030;-84
2022/06/11 11:25:38;;;;;;;3.55;1.30;;;28.00;70.00;;;;;;5030897;28;20074;-84
2022/06/11 11:28:06;;;;;;;6.03;1.40;;;28.00;70.20;;;;;;5030546;28;20065;-85
2022/06/11 11:30:38;;;;;;;3.50;1.30;;;28.10;70.10;;;;;;5040510;28;20031;-86
2022/06/11 11:33:26;;;;;;;3.50;1.40;;;28.40;69.40;;;;;;5036725;28;20030;-83
2022/06/11 11:36:17;;;;;;;3.28;1.65;;;28.30;69.00;;;;;;5036094;28;20093;-84
2022/06/11 11:38:43;;;;;;;6.55;1.75;;;28.20;69.60;;;;;;5035982;28;20100;-85
2022/06/11 11:41:24;;;;;;;5.53;1.63;;;28.00;70.40;;;;;;5036896;28;20080;-84
2022/06/11 11:43:51;;;;;;;5.78;1.38;;;28.00;70.60;;;;;;5030271;28;20025;-84
2022/06/11 11:46:25;;;;;;;5.07;1.60;;;27.90;70.40;;;;;;5033922;28;20025;-84
2022/06/11 11:48:56;;;;;;;4.60;1.80;;;27.80;70.60;;;;;;5028990;28;20030;-85
2022/06/11 11:51:27;;;;;;;3.15;1.45;;;27.50;70.70;;;;;;5031058;28;20034;-84
2022/06/11 11:54:03;;;;;;;3.25;1.40;;;27.30;71.00;;;;;;5031094;28;20045;-86
2022/06/11 11:56:38;;;;;;;6.55;1.50;;;27.00;71.40;;;;;;5033253;28;20026;-85
2022/06/11 11:59:23;;;;;;;6.68;1.60;;;26.80;71.90;;;;;;5025611;28;20018;-86
2022/06/11 12:01:53;;;;;;;3.58;1.10;;;26.90;72.20;;;;;;5029812;28;20029;-84
2022/06/11 12:04:26;;;;;;;3.50;1.23;;;27.10;71.90;;;;;;5026757;28;20034;-83
2022/06/11 12:06:58;;;;;;;4.97;1.60;;;27.50;72.00;;;;;;5034164;28;20033;-84
2022/06/11 12:09:42;;;;;;;5.68;1.30;;;27.80;71.10;;;;;;5028879;28;20033;-85
2022/06/11 12:12:21;;;;;;;3.65;1.30;;;28.00;69.80;;;;;;5032877;28;20041;-86
2022/06/11 12:15:14;;;;;;;6.07;1.70;;;28.10;69.70;;;;;;5031945;28;20088;-85
2022/06/11 12:17:43;;;;;;;5.20;2.20;;;28.10;69.20;;;;;;5025072;28;20108;-84
2022/06/11 12:20:26;;;;;;;5.72;1.60;;;28.40;69.50;;;;;;5026351;28;20702;-85
2022/06/11 12:23:05;;;;;;;4.07;1.40;;;28.40;69.30;;;;;;5032090;28;20033;-83
2022/06/11 12:26:08;;;;;;;5.20;1.65;;;28.00;68.90;;;;;;5027415;28;20044;-85
2022/06/11 12:28:47;;;;;;;7.82;1.60;;;27.70;69.90;;;;;;5026436;28;20057;-86
2022/06/11 12:31:14;;;;;;;5.00;1.40;;;27.60;69.30;;;;;;5027285;28;20033;-84
2022/06/11 12:33:45;;;;;;;3.28;1.20;;;27.60;69.70;;;;;;5030946;28;20555;-85
2022/06/11 12:36:31;;;;;;;6.03;1.90;;;27.70;69.10;;;;;;5026822;28;20041;-85
2022/06/11 12:39:04;;;;;;;4.47;1.50;;;27.90;68.60;;;;;;5018886;28;20056;-85
2022/06/11 12:41:32;;;;;;;3.97;1.42;;;27.90;68.60;;;;;;5035430;28;20482;-85
2022/06/11 12:45:15;;;;;;;3.50;1.90;;;28.00;69.60;;;;;;5031725;28;20100;-83
2022/06/11 12:48:00;;;;;;;3.40;1.10;;;28.20;68.50;;;;;;4927934;29;20051;-84
2022/06/11 12:50:48;;;;;;;3.80;1.25;;;28.40;67.20;;;;;;4919308;29;20042;-84
2022/06/11 12:53:31;;;;;;;2.75;1.20;;;28.60;66.90;;;;;;5007368;28;20034;-85
2022/06/11 12:56:18;;;;;;;3.15;1.15;;;28.80;67.40;;;;;;5027332;28;20021;-84
2022/06/11 12:59:06;;;;;;;2.83;1.30;;;28.80;65.30;;;;;;5026098;28;20026;-85
2022/06/11 13:01:51;;;;;;;3.53;1.50;;;28.80;65.50;;;;;;5025068;28;20061;-85
2022/06/11 13:04:43;;;;;;;5.10;1.52;;;28.90;65.30;;;;;;5026930;28;20041;-86
2022/06/11 13:07:20;;;;;;;4.90;1.30;;;28.90;65.30;;;;;;5014168;28;20034;-84
2022/06/11 13:15:24;;;;;;;3.90;1.40;;;28.50;66.30;;;;;;5035878;28;20037;-87
2022/06/11 13:18:12;;;;;;;3.25;1.50;;;28.50;66.80;;;;;;5038161;28;20049;-83
2022/06/11 13:20:44;;;;;;;4.72;1.30;;;28.60;66.30;;;;;;5036978;28;20076;-84
2022/06/11 13:23:31;;;;;;;3.80;1.33;;;28.80;64.50;;;;;;5036992;28;20097;-85
2022/06/11 13:26:08;;;;;;;4.75;1.52;;;28.90;63.40;;;;;;5034000;28;20041;-84
2022/06/11 13:28:44;;;;;;;6.03;1.40;;;28.80;64.10;;;;;;5032321;28;20025;-84
2022/06/11 13:31:34;;;;;;;4.18;1.60;;;28.60;63.70;;;;;;5030216;28;20064;-84
2022/06/11 13:37:44;;;;;;;4.85;1.30;;;28.80;64.60;;;;;;5022203;28;20030;-85
2022/06/11 13:40:22;;;;;;;4.47;1.50;;;28.80;64.20;;;;;;5032448;28;20068;-84
2022/06/11 13:43:01;;;;;;;4.15;1.30;;;28.90;64.00;;;;;;5032031;28;20442;-85
2022/06/11 13:45:26;;;;;;;4.72;1.40;;;28.90;64.20;;;;;;5030323;28;20393;-86
2022/06/11 13:48:24;;;;;;;4.90;1.55;;;28.90;64.00;;;;;;5023271;28;20033;-83
2022/06/11 13:50:58;;;;;;;2.85;1.25;;;29.10;64.20;;;;;;5037810;28;20037;-87
2022/06/11 13:56:43;;;;;;;4.85;1.58;;;29.50;63.60;;;;;;5031464;28;20353;-84
2022/06/11 13:59:38;;;;;;;4.25;1.17;;;29.60;62.80;;;;;;5030869;28;20485;-87
2022/06/11 14:02:11;;;;;;;3.03;1.13;;;29.60;62.50;;;;;;5031616;28;20025;-84
2022/06/11 14:05:04;;;;;;;6.32;1.63;;;29.70;62.40;;;;;;5023580;28;20026;-85
2022/06/11 14:07:34;;;;;;;4.75;1.50;;;29.70;63.00;;;;;;5027001;28;20493;-83
2022/06/11 14:10:30;;;;;;;3.95;1.30;;;29.60;62.80;;;;;;5038795;28;20091;-85
2022/06/11 14:12:58;;;;;;;4.97;1.40;;;29.60;62.70;;;;;;5032254;28;20026;-83
2022/06/11 14:15:40;;;;;;;4.65;1.38;;;29.60;63.30;;;;;;5032512;28;20505;-84
2022/06/11 14:18:06;;;;;;;3.75;1.17;;;29.60;62.20;;;;;;5033035;28;20746;-84
2022/06/11 14:20:31;;;;;;;4.00;1.48;;;29.50;62.00;;;;;;5034130;28;20328;-86
2022/06/11 14:23:25;;;;;;;3.72;1.38;;;29.40;62.70;;;;;;5032895;28;20026;-86
2022/06/11 14:25:56;;;;;;;4.50;1.30;;;29.60;63.90;;;;;;5026899;28;20097;-85
2022/06/11 14:28:23;;;;;;;3.65;1.15;;;29.70;62.20;;;;;;5028935;28;20030;-83
2022/06/11 14:30:48;;;;;;;3.38;1.30;;;29.80;62.00;;;;;;5029346;28;20022;-86
2022/06/11 14:33:15;;;;;;;3.63;1.52;;;29.90;61.80;;;;;;5033214;28;20091;-84
2022/06/11 14:35:50;;;;;;;4.93;1.35;;;29.70;61.90;;;;;;5032683;28;20030;-84
2022/06/11 14:38:22;;;;;;;3.30;1.88;;;29.60;61.80;;;;;;5035934;28;20535;-85
2022/06/11 14:40:53;;;;;;;4.50;1.00;;;29.50;61.70;;;;;;5037769;28;20018;-86
2022/06/11 14:43:21;;;;;;;3.95;1.33;;;29.40;60.50;;;;;;5041429;28;20038;-83
2022/06/11 14:45:52;;;;;;;3.05;1.50;;;29.40;61.30;;;;;;5041206;28;20033;-84
2022/06/11 14:48:33;;;;;;;4.28;1.60;;;29.50;61.70;;;;;;5030670;28;20025;-84
2022/06/11 14:51:09;;;;;;;2.70;1.27;;;29.50;61.50;;;;;;5023006;28;20033;-81
2022/06/11 14:53:46;;;;;;;5.50;1.35;;;29.50;61.70;;;;;;5024605;28;20624;-83
2022/06/11 14:56:14;;;;;;;4.28;1.20;;;29.50;61.40;;;;;;5031203;28;20037;-83
2022/06/11 14:58:58;;;;;;;4.78;1.17;;;29.50;61.10;;;;;;5029839;28;20034;-83
2022/06/11 15:01:49;;;;;;;4.05;1.10;;;29.40;61.20;;;;;;5031432;28;20388;-82
2022/06/11 15:04:36;;;;;;;3.63;1.38;;;29.40;61.30;;;;;;5034805;28;20040;-84
2022/06/11 15:07:28;;;;;;;2.20;0.95;;;29.40;60.80;;;;;;5031820;28;20026;-83
2022/06/11 15:10:00;;;;;;;4.72;1.20;;;29.50;61.30;;;;;;5029020;28;20051;-83
2022/06/11 15:12:52;;;;;;;5.22;1.45;;;29.50;60.60;;;;;;5032957;28;20586;-85
2022/06/11 15:15:45;;;;;;;2.63;1.30;;;29.30;60.10;;;;;;5019894;28;20038;-84
2022/06/11 15:18:18;;;;;;;4.15;1.30;;;29.40;60.80;;;;;;5040381;28;20032;-83
2022/06/11 15:20:48;;;;;;;4.00;1.55;;;29.40;60.40;;;;;;5028896;28;20117;-84
2022/06/11 15:23:31;;;;;;;3.50;1.33;;;29.50;60.80;;;;;;5029009;28;20033;-82
2022/06/11 15:26:01;;;;;;;4.65;2.30;;;29.70;61.10;;;;;;5029579;28;20033;-83
2022/06/11 15:28:27;;;;;;;1.60;1.00;;;29.80;60.90;;;;;;5031492;28;20379;-83
2022/06/11 15:30:53;;;;;;;3.17;1.20;;;29.70;60.50;;;;;;5030327;28;20117;-84
2022/06/11 15:33:30;;;;;;;2.05;1.20;;;29.50;60.30;;;;;;5027598;28;20033;-84
2022/06/11 15:36:09;;;;;;;2.17;1.20;;;29.60;60.50;;;;;;5045493;28;20584;-84
2022/06/11 15:38:48;;;;;;;1.90;0.90;;;29.60;59.60;;;;;;5025840;28;20025;-83
2022/06/11 15:41:25;;;;;;;;;;;29.60;59.00;;;;;;5024145;28;20398;-84
2022/06/11 15:43:54;;;;;;;3.60;1.30;;;29.60;58.80;;;;;;5024628;28;19914;-82
2022/06/11 15:46:33;;;;;;;3.15;1.30;;;29.60;59.30;;;;;;5028165;28;20046;-84
2022/06/11 15:49:01;;;;;;;3.38;1.20;;;29.50;59.00;;;;;;5032783;28;20453;-85
2022/06/11 15:51:30;;;;;;;3.95;1.10;;;29.40;60.60;;;;;;5032815;28;20021;-84
2022/06/11 15:56:55;;;;;;;5.47;1.75;;;29.40;61.20;;;;;;5026456;28;20028;-85
2022/06/11 15:59:24;;;;;;;2.28;1.20;;;29.40;60.30;;;;;;5023630;28;20117;-83
2022/06/11 16:02:12;;;;;;;3.53;1.30;;;29.30;60.70;;;;;;5028519;28;20031;-83
2022/06/11 16:04:49;;;;;;;4.95;1.38;;;29.30;61.00;;;;;;5032546;28;20026;-83
2022/06/11 16:07:25;;;;;;;3.97;1.50;;;29.30;61.00;;;;;;5023435;28;20045;-86
2022/06/11 16:09:52;;;;;;;4.78;1.42;;;29.40;60.80;;;;;;5034279;28;20682;-84
2022/06/11 16:12:31;;;;;;;3.38;1.27;;;29.30;60.60;;;;;;5031887;28;20053;-83
2022/06/11 16:14:58;;;;;;;;;;;29.30;61.00;;;;;;5035040;28;20060;-83
2022/06/11 16:17:37;;;;;;;3.15;1.30;;;29.10;61.50;;;;;;5028149;28;19909;-83
2022/06/11 16:20:22;;;;;;;3.80;1.40;;;29.30;61.90;;;;;;5028831;28;20025;-84
2022/06/11 16:22:51;;;;;;;3.95;1.20;;;29.50;61.30;;;;;;5030553;28;20036;-85
2022/06/11 16:25:37;;;;;;;5.57;1.52;;;29.50;60.80;;;;;;5042522;28;20029;-83
2022/06/11 16:28:05;;;;;;;3.20;1.50;;;29.40;62.20;;;;;;5041494;28;20026;-84